This is the latest recevied weather packets stored in our database for station/object WB0OCV. If no packets are shown the sender has not sent any weather packets the latest 10 day(s).
| Time | Temp. | Humidity | Pressure | Rain* | Wind** | Luminosity | Snow |
|---|---|---|---|---|---|---|---|
| 1778079617 | 20° C | 70% | 1015.5 hPa | 0 mm | - | 772 W/m² | - |
| 1778079314 | 19.44° C | 70% | 1015.4 hPa | 0 mm | - | 489 W/m² | - |
| 1778079011 | 20° C | 70% | 1015.4 hPa | 0 mm | - | 616 W/m² | - |
| 1778078708 | 20° C | 69% | 1015.2 hPa | 0 mm | - | 578 W/m² | - |
| 1778078405 | 18.89° C | 72% | 1015.2 hPa | 0 mm | - | 568 W/m² | - |
| 1778078102 | 18.89° C | 73% | 1015 hPa | 0 mm | - | 323 W/m² | - |
| 1778077801 | 18.89° C | 73% | 1015 hPa | 0 mm | - | 320 W/m² | - |
| 1778077498 | 19.44° C | 71% | 1015.1 hPa | 0 mm | - | 299 W/m² | - |
| 1778077196 | 20° C | 69% | 1015.3 hPa | 0 mm | - | 488 W/m² | - |
| 1778076894 | 20.56° C | 68% | 1015.3 hPa | 0 mm | - | 633 W/m² | - |
| 1778076592 | 20.56° C | 68% | 1015.4 hPa | 0 mm | - | 671 W/m² | - |
| 1778076289 | 20° C | 70% | 1015.3 hPa | 0 mm | - | 606 W/m² | - |
| 1778075985 | 20° C | 69% | 1015.4 hPa | 0 mm | - | 630 W/m² | - |
| 1778075683 | 20° C | 69% | 1015.5 hPa | 0 mm | - | 599 W/m² | - |
| 1778075378 | 20° C | 70% | 1015.2 hPa | 0 mm | - | 601 W/m² | - |
| 1778075075 | 20° C | 71% | 1015.3 hPa | 0 mm | - | 585 W/m² | - |
| 1778074772 | 18.89° C | 72% | 1015.2 hPa | 0 mm | - | 568 W/m² | - |
| 1778074469 | 18.89° C | 73% | 1015.1 hPa | 0 mm | - | 545 W/m² | - |
| 1778074166 | 18.89° C | 74% | 1015.3 hPa | 0 mm | - | 268 W/m² | - |
| 1778073863 | 18.89° C | 74% | 1015.1 hPa | 0 mm | - | 92 W/m² | - |
| 1778073560 | 18.89° C | 75% | 1015.2 hPa | 0 mm | - | 88 W/m² | - |
| 1778073256 | 18.33° C | 75% | 1015.2 hPa | 0 mm | - | 86 W/m² | - |
| 1778072954 | 18.33° C | 76% | 1015.2 hPa | 0 mm | - | 84 W/m² | - |
| 1778072650 | 17.78° C | 77% | 1015.2 hPa | 0 mm | - | 77 W/m² | - |
| 1778072348 | 17.78° C | 77% | 1015.3 hPa | 0 mm | - | 74 W/m² | - |
* Rain latest hour (hover to see other rain measurements)
** Current wind speed in m/s (hover to see current wind gust speed)